sensor_id;sensor_type;location;lat;lon;timestamp;pressure;altitude;pressure_sealevel;temperature;humidity
82266;BME280;71866;53.340;-6.308;2023-12-20T00:01:16;101885.50;;;9.78;80.42
82266;BME280;71866;53.340;-6.308;2023-12-20T00:03:44;101875.53;;;9.67;80.43
82266;BME280;71866;53.340;-6.308;2023-12-20T00:06:11;101871.06;;;9.68;81.26
82266;BME280;71866;53.340;-6.308;2023-12-20T00:08:39;101870.38;;;9.64;81.76
82266;BME280;71866;53.340;-6.308;2023-12-20T00:11:07;101865.34;;;9.60;81.99
82266;BME280;71866;53.340;-6.308;2023-12-20T00:13:36;101858.72;;;9.65;82.46
82266;BME280;71866;53.340;-6.308;2023-12-20T00:16:03;101864.06;;;9.65;82.42
82266;BME280;71866;53.340;-6.308;2023-12-20T00:18:30;101866.34;;;9.71;81.86
82266;BME280;71866;53.340;-6.308;2023-12-20T00:20:57;101867.19;;;9.72;82.67
82266;BME280;71866;53.340;-6.308;2023-12-20T00:23:25;101874.47;;;9.70;81.96
82266;BME280;71866;53.340;-6.308;2023-12-20T00:25:53;101877.91;;;9.72;82.29
82266;BME280;71866;53.340;-6.308;2023-12-20T00:28:20;101849.22;;;9.74;83.08
82266;BME280;71866;53.340;-6.308;2023-12-20T00:30:47;101858.88;;;9.77;82.97
82266;BME280;71866;53.340;-6.308;2023-12-20T00:33:14;101852.13;;;9.71;82.56
82266;BME280;71866;53.340;-6.308;2023-12-20T00:35:42;101871.28;;;9.78;82.31
82266;BME280;71866;53.340;-6.308;2023-12-20T00:38:09;101859.81;;;9.76;82.68
82266;BME280;71866;53.340;-6.308;2023-12-20T00:40:37;101871.59;;;9.73;82.98
82266;BME280;71866;53.340;-6.308;2023-12-20T00:43:04;101863.56;;;9.73;82.93
82266;BME280;71866;53.340;-6.308;2023-12-20T00:45:30;101859.63;;;9.79;82.69
82266;BME280;71866;53.340;-6.308;2023-12-20T00:47:58;101866.56;;;9.81;83.18
82266;BME280;71866;53.340;-6.308;2023-12-20T00:50:26;101865.38;;;9.85;82.50
82266;BME280;71866;53.340;-6.308;2023-12-20T00:52:56;101873.63;;;9.82;82.87
82266;BME280;71866;53.340;-6.308;2023-12-20T00:55:22;101898.44;;;9.84;82.42
82266;BME280;71866;53.340;-6.308;2023-12-20T00:57:50;101874.28;;;9.86;82.91
82266;BME280;71866;53.340;-6.308;2023-12-20T01:00:17;101889.16;;;9.90;82.46
82266;BME280;71866;53.340;-6.308;2023-12-20T01:02:45;101891.41;;;9.96;82.69
82266;BME280;71866;53.340;-6.308;2023-12-20T01:05:11;101875.03;;;9.88;82.69
82266;BME280;71866;53.340;-6.308;2023-12-20T01:07:39;101858.44;;;9.95;82.64
82266;BME280;71866;53.340;-6.308;2023-12-20T01:10:06;101863.56;;;9.98;83.06
82266;BME280;71866;53.340;-6.308;2023-12-20T01:12:32;101851.50;;;10.06;82.45
82266;BME280;71866;53.340;-6.308;2023-12-20T01:15:00;101865.75;;;10.06;82.42
82266;BME280;71866;53.340;-6.308;2023-12-20T01:17:27;101850.09;;;10.00;83.14
82266;BME280;71866;53.340;-6.308;2023-12-20T01:19:54;101855.53;;;9.98;82.89
82266;BME280;71866;53.340;-6.308;2023-12-20T01:22:21;101856.28;;;10.00;83.04
82266;BME280;71866;53.340;-6.308;2023-12-20T01:24:49;101848.47;;;9.97;83.29
82266;BME280;71866;53.340;-6.308;2023-12-20T01:27:16;101844.41;;;9.92;83.62
82266;BME280;71866;53.340;-6.308;2023-12-20T01:29:43;101852.97;;;9.97;83.37
82266;BME280;71866;53.340;-6.308;2023-12-20T01:32:10;101867.00;;;10.00;83.71
82266;BME280;71866;53.340;-6.308;2023-12-20T01:34:36;101846.34;;;10.02;83.74
82266;BME280;71866;53.340;-6.308;2023-12-20T01:37:04;101843.03;;;9.99;83.66
82266;BME280;71866;53.340;-6.308;2023-12-20T01:39:31;101853.84;;;10.10;84.21
82266;BME280;71866;53.340;-6.308;2023-12-20T01:41:58;101865.09;;;10.15;82.90
82266;BME280;71866;53.340;-6.308;2023-12-20T01:44:25;101862.09;;;10.20;83.14
82266;BME280;71866;53.340;-6.308;2023-12-20T01:46:53;101852.28;;;10.20;82.57
82266;BME280;71866;53.340;-6.308;2023-12-20T01:49:21;101843.06;;;10.24;83.22
82266;BME280;71866;53.340;-6.308;2023-12-20T01:51:50;101855.25;;;10.28;82.93
82266;BME280;71866;53.340;-6.308;2023-12-20T01:54:17;101843.47;;;10.31;82.85
82266;BME280;71866;53.340;-6.308;2023-12-20T01:56:46;101837.50;;;10.27;83.10
82266;BME280;71866;53.340;-6.308;2023-12-20T01:59:13;101854.19;;;10.31;83.33
82266;BME280;71866;53.340;-6.308;2023-12-20T02:01:40;101820.13;;;10.33;83.32
82266;BME280;71866;53.340;-6.308;2023-12-20T02:04:09;101848.09;;;10.29;83.43
82266;BME280;71866;53.340;-6.308;2023-12-20T02:06:37;101850.31;;;10.35;83.44
82266;BME280;71866;53.340;-6.308;2023-12-20T02:09:09;101842.81;;;10.40;82.99
82266;BME280;71866;53.340;-6.308;2023-12-20T02:11:38;101843.38;;;10.45;82.78
82266;BME280;71866;53.340;-6.308;2023-12-20T02:14:08;101864.69;;;10.47;83.21
82266;BME280;71866;53.340;-6.308;2023-12-20T02:16:40;101833.19;;;10.50;83.13
82266;BME280;71866;53.340;-6.308;2023-12-20T02:19:14;101830.41;;;10.52;82.65
82266;BME280;71866;53.340;-6.308;2023-12-20T02:21:42;101826.13;;;10.49;82.90
82266;BME280;71866;53.340;-6.308;2023-12-20T02:24:10;101825.16;;;10.50;82.43
82266;BME280;71866;53.340;-6.308;2023-12-20T02:26:37;101835.88;;;10.50;82.52
82266;BME280;71866;53.340;-6.308;2023-12-20T02:29:04;101833.41;;;10.47;83.14
82266;BME280;71866;53.340;-6.308;2023-12-20T02:31:31;101830.84;;;10.46;83.23
82266;BME280;71866;53.340;-6.308;2023-12-20T02:33:58;101847.75;;;10.46;82.53
82266;BME280;71866;53.340;-6.308;2023-12-20T02:36:26;101838.03;;;10.45;83.96
82266;BME280;71866;53.340;-6.308;2023-12-20T02:38:52;101843.16;;;10.48;84.23
82266;BME280;71866;53.340;-6.308;2023-12-20T02:41:20;101860.06;;;10.49;83.42
82266;BME280;71866;53.340;-6.308;2023-12-20T02:43:47;101868.63;;;10.54;83.16
82266;BME280;71866;53.340;-6.308;2023-12-20T02:46:15;101854.81;;;10.47;83.55
82266;BME280;71866;53.340;-6.308;2023-12-20T02:48:43;101829.25;;;10.43;83.91
82266;BME280;71866;53.340;-6.308;2023-12-20T02:51:11;101869.28;;;10.32;84.21
82266;BME280;71866;53.340;-6.308;2023-12-20T02:53:38;101863.59;;;10.37;85.20
82266;BME280;71866;53.340;-6.308;2023-12-20T02:56:04;101867.03;;;10.39;85.02
82266;BME280;71866;53.340;-6.308;2023-12-20T02:58:32;101855.47;;;10.38;85.27
82266;BME280;71866;53.340;-6.308;2023-12-20T03:00:59;101859.09;;;10.37;85.77
82266;BME280;71866;53.340;-6.308;2023-12-20T03:03:27;101872.38;;;10.39;85.61
82266;BME280;71866;53.340;-6.308;2023-12-20T03:05:54;101859.97;;;10.38;86.20
82266;BME280;71866;53.340;-6.308;2023-12-20T03:08:22;101863.50;;;10.38;86.48
82266;BME280;71866;53.340;-6.308;2023-12-20T03:10:49;101852.47;;;10.43;85.89
82266;BME280;71866;53.340;-6.308;2023-12-20T03:13:15;101846.47;;;10.39;85.85
82266;BME280;71866;53.340;-6.308;2023-12-20T03:15:43;101865.66;;;10.46;86.71
82266;BME280;71866;53.340;-6.308;2023-12-20T03:18:10;101826.75;;;10.40;85.81
82266;BME280;71866;53.340;-6.308;2023-12-20T03:20:38;101843.25;;;10.47;85.71
82266;BME280;71866;53.340;-6.308;2023-12-20T03:23:05;101852.91;;;10.49;84.69
82266;BME280;71866;53.340;-6.308;2023-12-20T03:25:33;101833.06;;;10.52;84.98
82266;BME280;71866;53.340;-6.308;2023-12-20T03:27:59;101837.47;;;10.53;85.34
82266;BME280;71866;53.340;-6.308;2023-12-20T03:30:28;101838.84;;;10.58;84.99
82266;BME280;71866;53.340;-6.308;2023-12-20T03:32:55;101813.13;;;10.56;84.48
82266;BME280;71866;53.340;-6.308;2023-12-20T03:35:23;101831.31;;;10.63;84.64
82266;BME280;71866;53.340;-6.308;2023-12-20T03:37:50;101814.84;;;10.57;85.05
82266;BME280;71866;53.340;-6.308;2023-12-20T03:40:17;101797.25;;;10.65;84.57
82266;BME280;71866;53.340;-6.308;2023-12-20T03:42:44;101816.84;;;10.66;84.43
82266;BME280;71866;53.340;-6.308;2023-12-20T03:45:11;101838.69;;;10.73;84.33
82266;BME280;71866;53.340;-6.308;2023-12-20T03:47:39;101817.59;;;10.68;84.83
82266;BME280;71866;53.340;-6.308;2023-12-20T03:50:06;101809.34;;;10.71;84.96
82266;BME280;71866;53.340;-6.308;2023-12-20T03:52:33;101820.91;;;10.72;84.72
82266;BME280;71866;53.340;-6.308;2023-12-20T03:55:00;101820.66;;;10.75;83.98
82266;BME280;71866;53.340;-6.308;2023-12-20T03:57:28;101809.97;;;10.75;83.41
82266;BME280;71866;53.340;-6.308;2023-12-20T03:59:55;101826.47;;;10.81;83.78
82266;BME280;71866;53.340;-6.308;2023-12-20T04:02:22;101833.41;;;10.84;83.95
82266;BME280;71866;53.340;-6.308;2023-12-20T04:04:49;101808.69;;;10.80;85.05
82266;BME280;71866;53.340;-6.308;2023-12-20T04:07:16;101840.59;;;10.83;84.13
82266;BME280;71866;53.340;-6.308;2023-12-20T04:09:43;101824.41;;;10.85;83.91
82266;BME280;71866;53.340;-6.308;2023-12-20T04:12:11;101808.69;;;10.80;84.14
82266;BME280;71866;53.340;-6.308;2023-12-20T04:14:37;101824.31;;;10.86;84.20
82266;BME280;71866;53.340;-6.308;2023-12-20T04:17:05;101860.34;;;10.70;84.63
82266;BME280;71866;53.340;-6.308;2023-12-20T04:19:31;101869.56;;;10.78;84.71
82266;BME280;71866;53.340;-6.308;2023-12-20T04:21:58;101860.84;;;10.75;86.39
82266;BME280;71866;53.340;-6.308;2023-12-20T04:24:26;101858.19;;;10.75;86.38
82266;BME280;71866;53.340;-6.308;2023-12-20T04:26:52;101878.53;;;10.77;86.42
82266;BME280;71866;53.340;-6.308;2023-12-20T04:29:20;101846.50;;;10.76;86.30
82266;BME280;71866;53.340;-6.308;2023-12-20T04:31:47;101851.53;;;10.80;85.75
82266;BME280;71866;53.340;-6.308;2023-12-20T04:34:15;101869.00;;;10.86;85.55
82266;BME280;71866;53.340;-6.308;2023-12-20T04:36:42;101826.34;;;10.83;84.83
82266;BME280;71866;53.340;-6.308;2023-12-20T04:39:10;101835.00;;;10.86;85.23
82266;BME280;71866;53.340;-6.308;2023-12-20T04:41:36;101808.84;;;10.90;84.51
82266;BME280;71866;53.340;-6.308;2023-12-20T04:44:05;101811.00;;;10.85;84.34
82266;BME280;71866;53.340;-6.308;2023-12-20T04:46:33;101823.44;;;10.86;84.98
82266;BME280;71866;53.340;-6.308;2023-12-20T04:49:00;101832.63;;;10.94;84.27
82266;BME280;71866;53.340;-6.308;2023-12-20T04:51:27;101804.00;;;10.95;84.19
82266;BME280;71866;53.340;-6.308;2023-12-20T04:53:54;101829.81;;;10.96;83.40
82266;BME280;71866;53.340;-6.308;2023-12-20T04:56:21;101827.78;;;11.00;83.86
82266;BME280;71866;53.340;-6.308;2023-12-20T04:58:49;101816.44;;;10.96;84.14
82266;BME280;71866;53.340;-6.308;2023-12-20T05:01:16;101846.13;;;10.93;84.57
82266;BME280;71866;53.340;-6.308;2023-12-20T05:03:42;101844.19;;;10.95;84.31
82266;BME280;71866;53.340;-6.308;2023-12-20T05:06:10;101812.72;;;10.86;84.27
82266;BME280;71866;53.340;-6.308;2023-12-20T05:08:39;101842.25;;;10.97;85.36
82266;BME280;71866;53.340;-6.308;2023-12-20T05:11:08;101851.25;;;10.96;86.17
82266;BME280;71866;53.340;-6.308;2023-12-20T05:13:36;101848.94;;;10.91;87.67
82266;BME280;71866;53.340;-6.308;2023-12-20T05:16:13;101836.38;;;10.92;87.68
82266;BME280;71866;53.340;-6.308;2023-12-20T05:18:41;101844.41;;;10.92;88.18
82266;BME280;71866;53.340;-6.308;2023-12-20T05:21:07;101826.63;;;10.91;89.29
82266;BME280;71866;53.340;-6.308;2023-12-20T05:23:34;101820.75;;;10.86;89.10
82266;BME280;71866;53.340;-6.308;2023-12-20T05:26:02;101804.91;;;10.83;88.71
82266;BME280;71866;53.340;-6.308;2023-12-20T05:28:29;101798.63;;;10.71;89.03
82266;BME280;71866;53.340;-6.308;2023-12-20T05:30:56;101820.66;;;10.75;88.48
82266;BME280;71866;53.340;-6.308;2023-12-20T05:33:23;101791.66;;;10.69;88.94
82266;BME280;71866;53.340;-6.308;2023-12-20T05:35:51;101802.03;;;10.73;87.61
82266;BME280;71866;53.340;-6.308;2023-12-20T05:38:18;101803.53;;;10.77;87.10
82266;BME280;71866;53.340;-6.308;2023-12-20T05:40:45;101805.25;;;10.78;87.02
82266;BME280;71866;53.340;-6.308;2023-12-20T05:43:11;101791.41;;;10.84;86.96
82266;BME280;71866;53.340;-6.308;2023-12-20T05:45:39;101823.31;;;10.87;87.29
82266;BME280;71866;53.340;-6.308;2023-12-20T05:48:06;101812.91;;;10.95;86.39
82266;BME280;71866;53.340;-6.308;2023-12-20T05:50:33;101808.63;;;10.93;86.22
82266;BME280;71866;53.340;-6.308;2023-12-20T05:53:01;101806.69;;;10.95;86.94
82266;BME280;71866;53.340;-6.308;2023-12-20T05:55:28;101790.13;;;11.01;86.23
82266;BME280;71866;53.340;-6.308;2023-12-20T05:57:56;101782.94;;;11.02;86.22
82266;BME280;71866;53.340;-6.308;2023-12-20T06:00:23;101756.91;;;11.04;86.63
82266;BME280;71866;53.340;-6.308;2023-12-20T06:02:51;101765.66;;;11.06;85.82
82266;BME280;71866;53.340;-6.308;2023-12-20T06:05:19;101753.34;;;11.03;85.76
82266;BME280;71866;53.340;-6.308;2023-12-20T06:07:45;101733.50;;;11.06;86.19
82266;BME280;71866;53.340;-6.308;2023-12-20T06:10:14;101742.00;;;11.00;87.27
82266;BME280;71866;53.340;-6.308;2023-12-20T06:12:40;101726.28;;;10.95;86.55
82266;BME280;71866;53.340;-6.308;2023-12-20T06:15:07;101746.44;;;11.12;86.90
82266;BME280;71866;53.340;-6.308;2023-12-20T06:17:35;101751.69;;;11.13;86.82
82266;BME280;71866;53.340;-6.308;2023-12-20T06:20:02;101756.84;;;11.16;87.04
82266;BME280;71866;53.340;-6.308;2023-12-20T06:22:29;101740.97;;;11.13;87.26
82266;BME280;71866;53.340;-6.308;2023-12-20T06:24:57;101756.38;;;11.22;86.75
82266;BME280;71866;53.340;-6.308;2023-12-20T06:27:24;101744.69;;;11.23;86.81
82266;BME280;71866;53.340;-6.308;2023-12-20T06:29:51;101754.53;;;11.23;87.41
82266;BME280;71866;53.340;-6.308;2023-12-20T06:32:18;101738.56;;;11.21;87.53
82266;BME280;71866;53.340;-6.308;2023-12-20T06:34:45;101750.78;;;11.25;87.69
82266;BME280;71866;53.340;-6.308;2023-12-20T06:37:12;101753.69;;;11.22;88.01
82266;BME280;71866;53.340;-6.308;2023-12-20T06:39:38;101743.81;;;11.23;88.59
82266;BME280;71866;53.340;-6.308;2023-12-20T06:42:06;101748.69;;;11.18;89.24
82266;BME280;71866;53.340;-6.308;2023-12-20T06:44:33;101758.75;;;11.14;88.56
82266;BME280;71866;53.340;-6.308;2023-12-20T06:47:00;101761.22;;;11.17;88.04
82266;BME280;71866;53.340;-6.308;2023-12-20T06:49:27;101751.13;;;11.21;88.37
82266;BME280;71866;53.340;-6.308;2023-12-20T06:51:55;101769.53;;;11.25;88.05
82266;BME280;71866;53.340;-6.308;2023-12-20T06:54:21;101781.06;;;11.15;88.40
82266;BME280;71866;53.340;-6.308;2023-12-20T06:56:49;101784.28;;;11.20;88.04
82266;BME280;71866;53.340;-6.308;2023-12-20T06:59:16;101795.09;;;11.18;88.46
82266;BME280;71866;53.340;-6.308;2023-12-20T07:01:42;101788.25;;;11.14;88.12
82266;BME280;71866;53.340;-6.308;2023-12-20T07:04:15;101784.09;;;11.10;88.85
82266;BME280;71866;53.340;-6.308;2023-12-20T07:06:42;101765.44;;;11.09;89.85
82266;BME280;71866;53.340;-6.308;2023-12-20T07:09:10;101741.44;;;11.07;90.30
82266;BME280;71866;53.340;-6.308;2023-12-20T07:11:36;101749.31;;;10.98;90.48
82266;BME280;71866;53.340;-6.308;2023-12-20T07:14:03;101748.75;;;11.05;91.24
82266;BME280;71866;53.340;-6.308;2023-12-20T07:16:30;101739.09;;;11.03;91.09
82266;BME280;71866;53.340;-6.308;2023-12-20T07:18:57;101761.41;;;11.03;91.92
82266;BME280;71866;53.340;-6.308;2023-12-20T07:21:24;101781.53;;;11.09;91.81
82266;BME280;71866;53.340;-6.308;2023-12-20T07:23:51;101765.78;;;11.04;91.68
82266;BME280;71866;53.340;-6.308;2023-12-20T07:26:18;101765.06;;;11.02;91.91
82266;BME280;71866;53.340;-6.308;2023-12-20T07:28:46;101759.69;;;11.02;92.11
82266;BME280;71866;53.340;-6.308;2023-12-20T07:31:15;101754.94;;;11.06;91.82
82266;BME280;71866;53.340;-6.308;2023-12-20T07:33:42;101766.13;;;11.00;93.41
82266;BME280;71866;53.340;-6.308;2023-12-20T07:36:09;101754.16;;;10.92;93.49
82266;BME280;71866;53.340;-6.308;2023-12-20T07:38:36;101723.84;;;10.92;93.09
82266;BME280;71866;53.340;-6.308;2023-12-20T07:41:03;101766.47;;;10.95;92.26
82266;BME280;71866;53.340;-6.308;2023-12-20T07:43:30;101732.97;;;10.89;91.73
82266;BME280;71866;53.340;-6.308;2023-12-20T07:46:04;101727.28;;;11.05;91.59
82266;BME280;71866;53.340;-6.308;2023-12-20T07:48:31;101726.56;;;11.03;90.92
82266;BME280;71866;53.340;-6.308;2023-12-20T07:50:58;101730.09;;;11.04;91.20
82266;BME280;71866;53.340;-6.308;2023-12-20T07:53:25;101711.84;;;11.09;91.20
82266;BME280;71866;53.340;-6.308;2023-12-20T07:55:53;101706.13;;;11.13;90.54
82266;BME280;71866;53.340;-6.308;2023-12-20T07:58:19;101703.72;;;11.21;90.21
82266;BME280;71866;53.340;-6.308;2023-12-20T08:00:52;101697.66;;;11.31;90.09
82266;BME280;71866;53.340;-6.308;2023-12-20T08:03:19;101678.03;;;11.30;88.78
82266;BME280;71866;53.340;-6.308;2023-12-20T08:05:47;101702.78;;;11.34;89.55
82266;BME280;71866;53.340;-6.308;2023-12-20T08:08:14;101685.22;;;11.30;88.22
82266;BME280;71866;53.340;-6.308;2023-12-20T08:10:41;101688.13;;;11.26;88.53
82266;BME280;71866;53.340;-6.308;2023-12-20T08:13:08;101702.88;;;11.32;88.45
82266;BME280;71866;53.340;-6.308;2023-12-20T08:15:35;101676.81;;;11.34;87.57
82266;BME280;71866;53.340;-6.308;2023-12-20T08:18:02;101678.16;;;11.28;87.78
82266;BME280;71866;53.340;-6.308;2023-12-20T08:20:29;101697.78;;;11.29;87.62
82266;BME280;71866;53.340;-6.308;2023-12-20T08:23:06;101677.41;;;11.26;88.23
82266;BME280;71866;53.340;-6.308;2023-12-20T08:25:34;101660.13;;;11.31;87.68
82266;BME280;71866;53.340;-6.308;2023-12-20T08:28:02;101681.81;;;11.27;87.64
82266;BME280;71866;53.340;-6.308;2023-12-20T08:30:29;101654.75;;;11.31;87.80
82266;BME280;71866;53.340;-6.308;2023-12-20T08:32:59;101686.56;;;11.35;87.12
82266;BME280;71866;53.340;-6.308;2023-12-20T08:35:26;101698.03;;;11.37;87.13
82266;BME280;71866;53.340;-6.308;2023-12-20T08:37:53;101672.44;;;11.33;88.10
82266;BME280;71866;53.340;-6.308;2023-12-20T08:40:20;101681.19;;;11.35;87.37
82266;BME280;71866;53.340;-6.308;2023-12-20T08:42:48;101711.66;;;11.34;87.69
82266;BME280;71866;53.340;-6.308;2023-12-20T08:45:14;101701.31;;;11.41;87.00
82266;BME280;71866;53.340;-6.308;2023-12-20T08:47:42;101675.09;;;11.44;87.05
82266;BME280;71866;53.340;-6.308;2023-12-20T08:50:09;101699.84;;;11.48;86.91
82266;BME280;71866;53.340;-6.308;2023-12-20T08:52:37;101692.66;;;11.48;86.56
82266;BME280;71866;53.340;-6.308;2023-12-20T08:55:04;101694.66;;;11.57;86.73
82266;BME280;71866;53.340;-6.308;2023-12-20T08:57:31;101719.25;;;11.51;88.49
82266;BME280;71866;53.340;-6.308;2023-12-20T08:59:59;101662.19;;;11.49;87.85
82266;BME280;71866;53.340;-6.308;2023-12-20T09:02:25;101695.34;;;11.48;87.79
82266;BME280;71866;53.340;-6.308;2023-12-20T09:04:52;101691.94;;;11.46;88.62
82266;BME280;71866;53.340;-6.308;2023-12-20T09:07:26;101684.88;;;11.45;88.16
82266;BME280;71866;53.340;-6.308;2023-12-20T09:09:53;101667.69;;;11.48;88.45
82266;BME280;71866;53.340;-6.308;2023-12-20T09:12:21;101649.88;;;11.47;88.43
82266;BME280;71866;53.340;-6.308;2023-12-20T09:14:50;101655.72;;;11.52;88.01
82266;BME280;71866;53.340;-6.308;2023-12-20T09:17:17;101646.09;;;11.49;87.96
82266;BME280;71866;53.340;-6.308;2023-12-20T09:19:45;101629.88;;;11.51;87.90
82266;BME280;71866;53.340;-6.308;2023-12-20T09:22:12;101618.94;;;11.54;87.92
82266;BME280;71866;53.340;-6.308;2023-12-20T09:24:40;101614.06;;;11.59;88.05
82266;BME280;71866;53.340;-6.308;2023-12-20T09:27:06;101606.97;;;11.69;88.38
82266;BME280;71866;53.340;-6.308;2023-12-20T09:29:34;101614.53;;;11.75;87.63
82266;BME280;71866;53.340;-6.308;2023-12-20T09:32:01;101628.19;;;11.83;86.75
82266;BME280;71866;53.340;-6.308;2023-12-20T09:34:29;101601.38;;;11.83;86.11
82266;BME280;71866;53.340;-6.308;2023-12-20T09:36:55;101621.59;;;11.87;85.78
82266;BME280;71866;53.340;-6.308;2023-12-20T09:39:23;101572.81;;;11.94;85.86
82266;BME280;71866;53.340;-6.308;2023-12-20T09:42:01;101611.00;;;11.97;85.05
82266;BME280;71866;53.340;-6.308;2023-12-20T09:44:28;101581.09;;;12.02;85.05
82266;BME280;71866;53.340;-6.308;2023-12-20T09:46:57;101593.41;;;12.04;84.56
82266;BME280;71866;53.340;-6.308;2023-12-20T09:49:25;101560.09;;;12.07;84.95
82266;BME280;71866;53.340;-6.308;2023-12-20T09:51:55;101555.44;;;12.09;84.83
82266;BME280;71866;53.340;-6.308;2023-12-20T09:54:22;101573.28;;;11.99;84.25
82266;BME280;71866;53.340;-6.308;2023-12-20T09:56:50;101563.75;;;12.06;85.26
82266;BME280;71866;53.340;-6.308;2023-12-20T09:59:17;101573.16;;;12.00;85.48
82266;BME280;71866;53.340;-6.308;2023-12-20T10:01:45;101570.72;;;11.97;85.41
82266;BME280;71866;53.340;-6.308;2023-12-20T10:04:12;101516.34;;;11.95;86.16
82266;BME280;71866;53.340;-6.308;2023-12-20T10:06:55;101508.28;;;11.95;85.19
82266;BME280;71866;53.340;-6.308;2023-12-20T10:09:22;101533.16;;;11.97;85.24
82266;BME280;71866;53.340;-6.308;2023-12-20T10:11:54;101522.81;;;11.93;84.89
82266;BME280;71866;53.340;-6.308;2023-12-20T10:14:22;101512.06;;;11.93;85.66
82266;BME280;71866;53.340;-6.308;2023-12-20T10:16:51;101497.41;;;11.97;86.20
82266;BME280;71866;53.340;-6.308;2023-12-20T10:19:20;101527.19;;;11.94;86.53
82266;BME280;71866;53.340;-6.308;2023-12-20T10:21:47;101522.56;;;11.96;86.08
82266;BME280;71866;53.340;-6.308;2023-12-20T10:24:17;101513.91;;;11.92;86.27
82266;BME280;71866;53.340;-6.308;2023-12-20T10:26:44;101531.84;;;11.92;86.47
82266;BME280;71866;53.340;-6.308;2023-12-20T10:29:12;101532.56;;;11.94;86.66
82266;BME280;71866;53.340;-6.308;2023-12-20T10:31:40;101551.47;;;11.92;86.58
82266;BME280;71866;53.340;-6.308;2023-12-20T10:34:06;101540.38;;;11.97;85.88
82266;BME280;71866;53.340;-6.308;2023-12-20T10:36:33;101553.91;;;11.95;86.43
82266;BME280;71866;53.340;-6.308;2023-12-20T10:39:02;101525.97;;;11.98;86.49
82266;BME280;71866;53.340;-6.308;2023-12-20T10:41:31;101534.88;;;11.98;86.39
82266;BME280;71866;53.340;-6.308;2023-12-20T10:43:58;101554.50;;;11.99;86.42
82266;BME280;71866;53.340;-6.308;2023-12-20T10:46:27;101550.97;;;11.98;85.96
82266;BME280;71866;53.340;-6.308;2023-12-20T10:48:54;101518.03;;;11.96;85.75
82266;BME280;71866;53.340;-6.308;2023-12-20T10:51:23;101536.44;;;12.01;86.15
82266;BME280;71866;53.340;-6.308;2023-12-20T10:53:51;101553.28;;;12.03;85.63
82266;BME280;71866;53.340;-6.308;2023-12-20T10:56:20;101564.72;;;12.05;85.86
82266;BME280;71866;53.340;-6.308;2023-12-20T10:58:48;101556.81;;;12.03;86.13
82266;BME280;71866;53.340;-6.308;2023-12-20T11:01:17;101562.31;;;12.02;86.33
82266;BME280;71866;53.340;-6.308;2023-12-20T11:03:54;101580.97;;;12.03;86.40
82266;BME280;71866;53.340;-6.308;2023-12-20T11:06:27;101553.41;;;12.01;87.24
82266;BME280;71866;53.340;-6.308;2023-12-20T11:09:40;101560.59;;;12.01;86.92
82266;BME280;71866;53.340;-6.308;2023-12-20T11:14:54;101571.59;;;11.98;87.15
82266;BME280;71866;53.340;-6.308;2023-12-20T11:17:23;101567.31;;;11.95;87.26
82266;BME280;71866;53.340;-6.308;2023-12-20T11:22:26;101538.06;;;11.92;87.35
82266;BME280;71866;53.340;-6.308;2023-12-20T11:24:58;101550.38;;;11.95;87.13
82266;BME280;71866;53.340;-6.308;2023-12-20T11:27:24;101538.66;;;11.96;87.30
82266;BME280;71866;53.340;-6.308;2023-12-20T11:29:56;101534.88;;;11.98;87.21
82266;BME280;71866;53.340;-6.308;2023-12-20T11:34:55;101533.75;;;12.01;86.43
82266;BME280;71866;53.340;-6.308;2023-12-20T11:37:28;101512.88;;;12.04;86.07
82266;BME280;71866;53.340;-6.308;2023-12-20T11:40:01;101482.25;;;12.07;85.56
82266;BME280;71866;53.340;-6.308;2023-12-20T11:42:28;101491.59;;;12.12;85.36
82266;BME280;71866;53.340;-6.308;2023-12-20T11:44:55;101481.72;;;12.13;85.26
82266;BME280;71866;53.340;-6.308;2023-12-20T11:47:23;101477.31;;;12.12;84.96
82266;BME280;71866;53.340;-6.308;2023-12-20T11:49:51;101496.00;;;12.13;84.71
82266;BME280;71866;53.340;-6.308;2023-12-20T11:52:18;101505.75;;;12.14;84.92
82266;BME280;71866;53.340;-6.308;2023-12-20T11:54:46;101516.63;;;12.13;85.25
82266;BME280;71866;53.340;-6.308;2023-12-20T11:57:13;101491.72;;;12.11;84.25
82266;BME280;71866;53.340;-6.308;2023-12-20T11:59:40;101495.28;;;12.11;85.11
82266;BME280;71866;53.340;-6.308;2023-12-20T12:02:08;101505.88;;;12.13;84.77
82266;BME280;71866;53.340;-6.308;2023-12-20T12:04:34;101484.53;;;12.11;84.69
82266;BME280;71866;53.340;-6.308;2023-12-20T12:07:02;101506.25;;;12.08;85.42
82266;BME280;71866;53.340;-6.308;2023-12-20T12:09:29;101488.84;;;12.03;85.26
82266;BME280;71866;53.340;-6.308;2023-12-20T12:11:56;101498.81;;;12.12;85.28
82266;BME280;71866;53.340;-6.308;2023-12-20T12:14:24;101458.66;;;12.10;86.11
82266;BME280;71866;53.340;-6.308;2023-12-20T12:16:51;101448.06;;;12.09;86.87
82266;BME280;71866;53.340;-6.308;2023-12-20T12:19:25;101473.94;;;12.10;86.71
82266;BME280;71866;53.340;-6.308;2023-12-20T12:22:09;101493.44;;;12.12;86.81
82266;BME280;71866;53.340;-6.308;2023-12-20T12:24:40;101499.91;;;12.09;86.60
82266;BME280;71866;53.340;-6.308;2023-12-20T12:27:07;101466.53;;;12.02;88.54
82266;BME280;71866;53.340;-6.308;2023-12-20T12:29:35;101471.91;;;12.02;94.42
82266;BME280;71866;53.340;-6.308;2023-12-20T12:32:07;101451.28;;;12.03;88.29
82266;BME280;71866;53.340;-6.308;2023-12-20T12:34:35;101491.28;;;12.06;88.30
82266;BME280;71866;53.340;-6.308;2023-12-20T12:37:03;101477.41;;;12.01;89.37
82266;BME280;71866;53.340;-6.308;2023-12-20T12:39:31;101469.59;;;11.98;89.06
82266;BME280;71866;53.340;-6.308;2023-12-20T12:41:59;101478.50;;;11.98;88.88
82266;BME280;71866;53.340;-6.308;2023-12-20T12:44:26;101432.16;;;11.96;88.87
82266;BME280;71866;53.340;-6.308;2023-12-20T12:46:53;101400.41;;;12.01;88.75
82266;BME280;71866;53.340;-6.308;2023-12-20T12:49:20;101407.59;;;12.01;88.62
82266;BME280;71866;53.340;-6.308;2023-12-20T12:51:48;101416.50;;;12.01;88.13